Time,TemperatureF,DewpointF,PressureIn,WindDirection,WindDirectionDegrees,WindSpeedMPH,WindSpeedGustMPH,Humidity,HourlyPrecipIn,Conditions,Clouds,dailyrainin,SolarRadiationWatts/m^2,SoftwareType,DateUTC
2013-07-11 00:01:00,64.0,31.0,-100.00,SSE,162,8.0,13.0,29,0.00,,,0.00,0.000000,,2013-07-11 06:01:00,
2013-07-11 00:11:00,64.0,31.0,-100.00,SSE,162,8.0,13.0,29,0.00,,,0.00,0.000000,,2013-07-11 06:11:00,
2013-07-11 00:22:00,64.0,31.0,-100.00,SSE,162,8.0,13.0,29,0.00,,,0.00,0.000000,,2013-07-11 06:22:00,
2013-07-11 00:32:00,64.0,31.0,-100.00,SSE,162,8.0,13.0,29,0.00,,,0.00,0.000000,,2013-07-11 06:32:00,
2013-07-11 00:40:00,67.0,30.0,-100.00,SSE,154,10.0,17.0,25,0.00,,,0.00,0.000000,,2013-07-11 06:40:00,
2013-07-11 01:12:00,67.0,30.0,-100.00,SSE,154,10.0,17.0,25,0.00,,,0.00,0.000000,,2013-07-11 07:12:00,
2013-07-11 01:22:00,67.0,30.0,-100.00,SSE,154,10.0,17.0,25,0.00,,,0.00,0.000000,,2013-07-11 07:22:00,
2013-07-11 01:32:00,67.0,30.0,-100.00,SSE,154,10.0,17.0,25,0.00,,,0.00,0.000000,,2013-07-11 07:32:00,
2013-07-11 01:40:00,60.0,31.0,-100.00,South,176,6.0,13.0,33,0.00,,,0.00,0.000000,,2013-07-11 07:40:00,
2013-07-11 02:11:00,60.0,31.0,-100.00,South,176,6.0,13.0,33,0.00,,,0.00,0.000000,,2013-07-11 08:11:00,
2013-07-11 02:22:00,60.0,31.0,-100.00,South,176,6.0,13.0,33,0.00,,,0.00,0.000000,,2013-07-11 08:22:00,
2013-07-11 02:34:00,60.0,31.0,-100.00,South,176,6.0,13.0,33,0.00,,,0.00,0.000000,,2013-07-11 08:34:00,
2013-07-11 02:40:00,64.0,31.0,-100.00,SSE,165,7.0,11.0,29,0.00,,,0.00,0.000000,,2013-07-11 08:40:00,
2013-07-11 03:02:00,64.0,31.0,-100.00,SSE,165,7.0,11.0,29,0.00,,,0.00,0.000000,,2013-07-11 09:02:00,
2013-07-11 03:12:00,64.0,31.0,-100.00,SSE,165,7.0,11.0,29,0.00,,,0.00,0.000000,,2013-07-11 09:12:00,
2013-07-11 03:21:00,64.0,31.0,-100.00,SSE,165,7.0,11.0,29,0.00,,,0.00,0.000000,,2013-07-11 09:21:00,
2013-07-11 03:33:00,64.0,31.0,-100.00,SSE,165,7.0,11.0,29,0.00,,,0.00,0.000000,,2013-07-11 09:33:00,
2013-07-11 03:40:00,62.0,29.0,-100.00,SSW,203,4.0,12.0,29,0.00,,,0.00,0.000000,,2013-07-11 09:40:00,
2013-07-11 04:01:00,62.0,29.0,-100.00,SSW,203,4.0,12.0,29,0.00,,,0.00,0.000000,,2013-07-11 10:01:00,
2013-07-11 04:12:00,62.0,29.0,-100.00,SSW,203,4.0,12.0,29,0.00,,,0.00,0.000000,,2013-07-11 10:12:00,
2013-07-11 04:22:00,62.0,29.0,-100.00,SSW,203,4.0,12.0,29,0.00,,,0.00,0.000000,,2013-07-11 10:22:00,
2013-07-11 04:33:00,62.0,29.0,-100.00,SSW,203,4.0,12.0,29,0.00,,,0.00,0.000000,,2013-07-11 10:33:00,
2013-07-11 04:40:00,63.0,28.0,-100.00,SSW,209,8.0,18.0,26,0.00,,,0.00,0.000000,,2013-07-11 10:40:00,
2013-07-11 05:02:00,63.0,28.0,-100.00,SSW,209,8.0,18.0,26,0.00,,,0.00,0.000000,,2013-07-11 11:02:00,
2013-07-11 05:12:00,63.0,28.0,-100.00,SSW,209,8.0,18.0,26,0.00,,,0.00,0.000000,,2013-07-11 11:12:00,
2013-07-11 05:22:00,63.0,28.0,-100.00,SSW,209,8.0,18.0,26,0.00,,,0.00,0.000000,,2013-07-11 11:22:00,
2013-07-11 05:32:00,63.0,28.0,-100.00,SSW,209,8.0,18.0,26,0.00,,,0.00,0.000000,,2013-07-11 11:32:00,
2013-07-11 05:40:00,62.0,29.0,-100.00,SSW,200,6.0,15.0,28,0.00,,,-99.99,0.000000,,2013-07-11 11:40:00,
2013-07-11 06:12:00,62.0,29.0,-100.00,SSW,200,6.0,15.0,28,0.00,,,-99.99,0.000000,,2013-07-11 12:12:00,
2013-07-11 06:22:00,62.0,29.0,-100.00,SSW,200,6.0,15.0,28,0.00,,,-99.99,0.000000,,2013-07-11 12:22:00,
2013-07-11 06:33:00,62.0,29.0,-100.00,SSW,200,6.0,15.0,28,0.00,,,-99.99,0.000000,,2013-07-11 12:33:00,
2013-07-11 06:40:00,65.0,29.0,-100.00,SSW,192,8.0,14.0,26,0.00,,,-99.99,44.000000,,2013-07-11 12:40:00,
2013-07-11 07:13:00,65.0,29.0,-100.00,SSW,192,8.0,14.0,26,0.00,,,-99.99,44.000000,,2013-07-11 13:13:00,
2013-07-11 07:23:00,65.0,29.0,-100.00,SSW,192,8.0,14.0,26,0.00,,,-99.99,44.000000,,2013-07-11 13:23:00,
2013-07-11 07:34:00,65.0,29.0,-100.00,SSW,192,8.0,14.0,26,0.00,,,-99.99,44.000000,,2013-07-11 13:34:00,
2013-07-11 07:40:00,69.0,31.0,-100.00,SSW,197,9.0,18.0,24,0.00,,,0.00,245.000000,,2013-07-11 13:40:00,
2013-07-11 08:35:00,69.0,31.0,-100.00,SSW,197,9.0,18.0,24,0.00,,,0.00,245.000000,,2013-07-11 14:35:00,
2013-07-11 08:40:00,68.0,25.0,-100.00,SW,222,9.0,18.0,20,0.00,,,0.00,257.000000,,2013-07-11 14:40:00,
2013-07-11 09:13:00,68.0,25.0,-100.00,SW,222,9.0,18.0,20,0.00,,,0.00,257.000000,,2013-07-11 15:13:00,
2013-07-11 09:24:00,68.0,25.0,-100.00,SW,222,9.0,18.0,20,0.00,,,0.00,257.000000,,2013-07-11 15:24:00,
2013-07-11 09:36:00,68.0,25.0,-100.00,SW,222,9.0,18.0,20,0.00,,,0.00,257.000000,,2013-07-11 15:36:00,
2013-07-11 09:40:00,69.0,26.0,-100.00,SW,223,8.0,16.0,20,0.00,,,0.00,212.000000,,2013-07-11 15:40:00,
2013-07-11 10:05:00,69.0,26.0,-100.00,SW,223,8.0,16.0,20,0.00,,,0.00,212.000000,,2013-07-11 16:05:00,
2013-07-11 10:13:00,69.0,26.0,-100.00,SW,223,8.0,16.0,20,0.00,,,0.00,212.000000,,2013-07-11 16:13:00,
2013-07-11 10:24:00,69.0,26.0,-100.00,SW,223,8.0,16.0,20,0.00,,,0.00,212.000000,,2013-07-11 16:24:00,
2013-07-11 10:34:00,69.0,26.0,-100.00,SW,223,8.0,16.0,20,0.00,,,0.00,212.000000,,2013-07-11 16:34:00,
2013-07-11 10:40:00,70.0,27.0,-100.00,SW,222,10.0,18.0,20,0.00,,,0.00,322.000000,,2013-07-11 16:40:00,
2013-07-11 11:02:00,70.0,27.0,-100.00,SW,222,10.0,18.0,20,0.00,,,0.00,322.000000,,2013-07-11 17:02:00,
2013-07-11 11:14:00,70.0,27.0,-100.00,SW,222,10.0,18.0,20,0.00,,,0.00,322.000000,,2013-07-11 17:14:00,
2013-07-11 11:26:00,70.0,27.0,-100.00,SW,222,10.0,18.0,20,0.00,,,0.00,322.000000,,2013-07-11 17:26:00,
2013-07-11 11:40:00,72.0,27.0,-100.00,SW,233,8.0,16.0,19,0.00,,,0.00,395.000000,,2013-07-11 17:40:00,
2013-07-11 12:14:00,72.0,27.0,-100.00,SW,233,8.0,16.0,19,0.00,,,0.00,395.000000,,2013-07-11 18:14:00,
2013-07-11 12:35:00,72.0,27.0,-100.00,SW,233,8.0,16.0,19,0.00,,,0.00,395.000000,,2013-07-11 18:35:00,
2013-07-11 12:40:00,73.0,28.0,-100.00,South,175,5.0,16.0,19,0.00,,,0.00,485.000000,,2013-07-11 18:40:00,
2013-07-11 13:13:00,73.0,28.0,-100.00,South,175,5.0,16.0,19,0.00,,,0.00,485.000000,,2013-07-11 19:13:00,
2013-07-11 13:23:00,73.0,28.0,-100.00,South,175,5.0,16.0,19,0.00,,,0.00,485.000000,,2013-07-11 19:23:00,
2013-07-11 13:40:00,76.0,28.0,-100.00,South,171,6.0,14.0,17,0.00,,,0.00,881.000000,,2013-07-11 19:40:00,
2013-07-11 14:05:00,76.0,28.0,-100.00,South,171,6.0,14.0,17,0.00,,,0.00,881.000000,,2013-07-11 20:05:00,
2013-07-11 14:13:00,76.0,28.0,-100.00,South,171,6.0,14.0,17,0.00,,,0.00,881.000000,,2013-07-11 20:13:00,
2013-07-11 14:25:00,76.0,28.0,-100.00,South,171,6.0,14.0,17,0.00,,,0.00,881.000000,,2013-07-11 20:25:00,
2013-07-11 14:36:00,76.0,28.0,-100.00,South,171,6.0,14.0,17,0.00,,,0.00,881.000000,,2013-07-11 20:36:00,
2013-07-11 14:40:00,75.0,27.0,-100.00,South,181,6.0,15.0,17,0.00,,,0.00,558.000000,,2013-07-11 20:40:00,
2013-07-11 15:14:00,75.0,27.0,-100.00,South,181,6.0,15.0,17,0.00,,,0.00,558.000000,,2013-07-11 21:14:00,
2013-07-11 15:23:00,75.0,27.0,-100.00,South,181,6.0,15.0,17,0.00,,,0.00,558.000000,,2013-07-11 21:23:00,
2013-07-11 15:40:00,72.0,27.0,-100.00,SW,232,12.0,25.0,19,0.00,,,0.00,258.000000,,2013-07-11 21:40:00,
2013-07-11 16:04:00,72.0,27.0,-100.00,SW,232,12.0,25.0,19,0.00,,,0.00,258.000000,,2013-07-11 22:04:00,
2013-07-11 16:15:00,72.0,27.0,-100.00,SW,232,12.0,25.0,19,0.00,,,0.00,258.000000,,2013-07-11 22:15:00,
2013-07-11 16:24:00,72.0,27.0,-100.00,SW,232,12.0,25.0,19,0.00,,,0.00,258.000000,,2013-07-11 22:24:00,
2013-07-11 16:33:00,72.0,27.0,-100.00,SW,232,12.0,25.0,19,0.00,,,0.00,258.000000,,2013-07-11 22:33:00,
2013-07-11 16:40:00,73.0,32.0,-100.00,West,262,8.0,20.0,22,0.00,,,0.00,363.000000,,2013-07-11 22:40:00,
2013-07-11 17:13:00,73.0,32.0,-100.00,West,262,8.0,20.0,22,0.00,,,0.00,363.000000,,2013-07-11 23:13:00,
2013-07-11 17:35:00,73.0,32.0,-100.00,West,262,8.0,20.0,22,0.00,,,0.00,363.000000,,2013-07-11 23:35:00,
2013-07-11 17:40:00,75.0,34.0,-100.00,WSW,240,7.0,23.0,22,0.00,,,0.00,516.000000,,2013-07-11 23:40:00,
2013-07-11 18:05:00,75.0,34.0,-100.00,WSW,240,7.0,23.0,22,0.00,,,0.00,516.000000,,2013-07-12 00:05:00,
2013-07-11 18:13:00,75.0,34.0,-100.00,WSW,240,7.0,23.0,22,0.00,,,0.00,516.000000,,2013-07-12 00:13:00,
2013-07-11 18:34:00,75.0,34.0,-100.00,WSW,240,7.0,23.0,22,0.00,,,0.00,516.000000,,2013-07-12 00:34:00,
2013-07-11 18:40:00,70.0,33.0,-100.00,West,272,6.0,17.0,25,0.00,,,0.00,396.000000,,2013-07-12 00:40:00,
2013-07-11 19:26:00,70.0,33.0,-100.00,West,272,6.0,17.0,25,0.00,,,0.00,396.000000,,2013-07-12 01:26:00,
2013-07-11 19:35:00,70.0,33.0,-100.00,West,272,6.0,17.0,25,0.00,,,0.00,396.000000,,2013-07-12 01:35:00,
2013-07-11 19:40:00,64.0,37.0,-100.00,NNW,335,2.0,8.0,37,0.00,,,0.00,45.000000,,2013-07-12 01:40:00,
2013-07-11 20:15:00,64.0,37.0,-100.00,NNW,335,2.0,8.0,37,0.00,,,0.00,45.000000,,2013-07-12 02:15:00,
2013-07-11 20:24:00,64.0,37.0,-100.00,NNW,335,2.0,8.0,37,0.00,,,0.00,45.000000,,2013-07-12 02:24:00,
2013-07-11 20:35:00,64.0,37.0,-100.00,NNW,335,2.0,8.0,37,0.00,,,0.00,45.000000,,2013-07-12 02:35:00,
2013-07-11 20:40:00,60.0,35.0,-100.00,ENE,58,1.0,9.0,39,0.00,,,0.00,19.000000,,2013-07-12 02:40:00,
2013-07-11 21:14:00,60.0,35.0,-100.00,ENE,58,1.0,9.0,39,0.00,,,0.00,19.000000,,2013-07-12 03:14:00,
2013-07-11 21:23:00,60.0,35.0,-100.00,ENE,58,1.0,9.0,39,0.00,,,0.00,19.000000,,2013-07-12 03:23:00,
2013-07-11 21:36:00,60.0,35.0,-100.00,ENE,58,1.0,9.0,39,0.00,,,0.00,19.000000,,2013-07-12 03:36:00,
2013-07-11 21:40:00,60.0,39.0,-100.00,SSW,204,9.0,16.0,46,0.00,,,0.00,1.000000,,2013-07-12 03:40:00,
2013-07-11 22:11:00,60.0,39.0,-100.00,SSW,204,9.0,16.0,46,0.00,,,0.00,1.000000,,2013-07-12 04:11:00,
2013-07-11 22:22:00,60.0,39.0,-100.00,SSW,204,9.0,16.0,46,0.00,,,0.00,1.000000,,2013-07-12 04:22:00,
2013-07-11 22:32:00,60.0,39.0,-100.00,SSW,204,9.0,16.0,46,0.00,,,0.00,1.000000,,2013-07-12 04:32:00,
2013-07-11 22:40:00,56.0,44.0,-100.00,WSW,238,15.0,36.0,64,0.00,,,0.00,0.000000,,2013-07-12 04:40:00,
2013-07-11 23:11:00,56.0,44.0,-100.00,WSW,238,15.0,36.0,64,0.00,,,0.00,0.000000,,2013-07-12 05:11:00,
2013-07-11 23:22:00,56.0,44.0,-100.00,WSW,238,15.0,36.0,64,0.00,,,0.00,0.000000,,2013-07-12 05:22:00,
2013-07-11 23:32:00,56.0,44.0,-100.00,WSW,238,15.0,36.0,64,0.00,,,0.00,0.000000,,2013-07-12 05:32:00,
2013-07-11 23:40:00,53.0,43.0,-100.00,WSW,242,18.0,34.0,68,0.00,,,0.00,0.000000,,2013-07-12 05:40:00,